sensor_id;sensor_type;location;lat;lon;timestamp;pressure;altitude;pressure_sealevel;temperature;humidity
12791;BME280;6459;42.678;23.310;2022-07-18T00:00:06;53911.91;;;-144.00;39.86
12791;BME280;6459;42.678;23.310;2022-07-18T00:02:35;53923.84;;;-144.00;39.59
12791;BME280;6459;42.678;23.310;2022-07-18T00:05:05;53951.75;;;-144.00;39.58
12791;BME280;6459;42.678;23.310;2022-07-18T00:07:34;53949.75;;;-144.00;39.54
12791;BME280;6459;42.678;23.310;2022-07-18T00:10:05;53923.84;;;-144.00;39.60
12791;BME280;6459;42.678;23.310;2022-07-18T00:12:34;53921.88;;;-144.00;39.53
12791;BME280;6459;42.678;23.310;2022-07-18T00:15:04;53931.81;;;-144.00;39.59
12791;BME280;6459;42.678;23.310;2022-07-18T00:17:33;53909.91;;;-144.00;39.62
12791;BME280;6459;42.678;23.310;2022-07-18T00:20:02;53937.81;;;-144.00;39.52
12791;BME280;6459;42.678;23.310;2022-07-18T00:22:31;53941.78;;;-144.00;39.29
12791;BME280;6459;42.678;23.310;2022-07-18T00:24:59;53901.94;;;-144.00;39.17
12791;BME280;6459;42.678;23.310;2022-07-18T00:27:30;53909.91;;;-144.00;38.86
12791;BME280;6459;42.678;23.310;2022-07-18T00:29:58;53915.88;;;-144.00;39.05
12791;BME280;6459;42.678;23.310;2022-07-18T00:32:26;53939.78;;;-144.00;39.13
12791;BME280;6459;42.678;23.310;2022-07-18T00:34:54;53943.78;;;-144.00;39.08
12791;BME280;6459;42.678;23.310;2022-07-18T00:37:31;53953.75;;;-144.00;39.20
12791;BME280;6459;42.678;23.310;2022-07-18T00:40:00;53965.69;;;-144.00;39.15
12791;BME280;6459;42.678;23.310;2022-07-18T00:42:30;53949.75;;;-144.00;39.28
12791;BME280;6459;42.678;23.310;2022-07-18T00:44:58;53945.78;;;-144.00;38.93
12791;BME280;6459;42.678;23.310;2022-07-18T00:47:30;53951.75;;;-144.00;38.72
12791;BME280;6459;42.678;23.310;2022-07-18T00:49:59;53921.88;;;-144.00;38.76
12791;BME280;6459;42.678;23.310;2022-07-18T00:55:17;53973.66;;;-144.00;38.77
12791;BME280;6459;42.678;23.310;2022-07-18T00:57:48;53955.72;;;-144.00;38.82
12791;BME280;6459;42.678;23.310;2022-07-18T01:00:17;53913.91;;;-144.00;38.83
12791;BME280;6459;42.678;23.310;2022-07-18T01:03:05;53941.78;;;-144.00;38.68
12791;BME280;6459;42.678;23.310;2022-07-18T01:05:33;53929.84;;;-144.00;38.36
12791;BME280;6459;42.678;23.310;2022-07-18T01:13:20;53953.75;;;-144.00;37.98
12791;BME280;6459;42.678;23.310;2022-07-18T01:15:49;53937.81;;;-144.00;38.33
12791;BME280;6459;42.678;23.310;2022-07-18T01:18:17;53993.59;;;-144.00;38.22
12791;BME280;6459;42.678;23.310;2022-07-18T01:20:47;53983.63;;;-144.00;38.38
12791;BME280;6459;42.678;23.310;2022-07-18T01:23:15;53973.66;;;-144.00;38.29
12791;BME280;6459;42.678;23.310;2022-07-18T01:25:43;53941.78;;;-144.00;38.05
12791;BME280;6459;42.678;23.310;2022-07-18T01:28:12;53937.81;;;-144.00;37.95
12791;BME280;6459;42.678;23.310;2022-07-18T01:35:59;53983.63;;;-144.00;37.94
12791;BME280;6459;42.678;23.310;2022-07-18T01:38:28;53959.72;;;-144.00;38.18
12791;BME280;6459;42.678;23.310;2022-07-18T01:40:57;53997.56;;;-144.00;38.27
12791;BME280;6459;42.678;23.310;2022-07-18T01:43:26;53953.75;;;-144.00;38.31
12791;BME280;6459;42.678;23.310;2022-07-18T01:45:55;53933.81;;;-144.00;38.14
12791;BME280;6459;42.678;23.310;2022-07-18T01:48:24;54005.53;;;-144.00;38.33
12791;BME280;6459;42.678;23.310;2022-07-18T01:50:53;54025.47;;;-144.00;38.38
12791;BME280;6459;42.678;23.310;2022-07-18T01:53:23;54007.53;;;-144.00;38.13
12791;BME280;6459;42.678;23.310;2022-07-18T01:55:52;53987.59;;;-144.00;38.04
12791;BME280;6459;42.678;23.310;2022-07-18T01:58:20;53961.72;;;-144.00;38.00
12791;BME280;6459;42.678;23.310;2022-07-18T02:00:50;53977.66;;;-144.00;37.96
12791;BME280;6459;42.678;23.310;2022-07-18T02:03:19;53961.72;;;-144.00;38.05
12791;BME280;6459;42.678;23.310;2022-07-18T02:05:47;53985.63;;;-144.00;37.87
12791;BME280;6459;42.678;23.310;2022-07-18T02:08:16;53955.72;;;-144.00;38.20
12791;BME280;6459;42.678;23.310;2022-07-18T02:10:46;53965.69;;;-144.00;38.07
12791;BME280;6459;42.678;23.310;2022-07-18T02:13:14;54003.53;;;-144.00;37.74
12791;BME280;6459;42.678;23.310;2022-07-18T02:15:44;53945.78;;;-144.00;38.05
12791;BME280;6459;42.678;23.310;2022-07-18T02:18:13;53953.75;;;-144.00;38.04
12791;BME280;6459;42.678;23.310;2022-07-18T02:20:41;53969.69;;;-144.00;38.02
12791;BME280;6459;42.678;23.310;2022-07-18T02:23:10;53965.69;;;-144.00;37.90
12791;BME280;6459;42.678;23.310;2022-07-18T02:25:39;54009.53;;;-144.00;37.93
12791;BME280;6459;42.678;23.310;2022-07-18T02:28:15;53957.72;;;-144.00;37.90
12791;BME280;6459;42.678;23.310;2022-07-18T02:30:45;53973.66;;;-144.00;37.92
12791;BME280;6459;42.678;23.310;2022-07-18T02:33:18;53985.63;;;-144.00;38.15
12791;BME280;6459;42.678;23.310;2022-07-18T02:35:48;53985.63;;;-144.00;38.30
12791;BME280;6459;42.678;23.310;2022-07-18T02:38:17;53953.75;;;-144.00;38.30
12791;BME280;6459;42.678;23.310;2022-07-18T02:40:51;53983.63;;;-144.00;38.49
12791;BME280;6459;42.678;23.310;2022-07-18T02:43:21;53979.63;;;-144.00;38.04
12791;BME280;6459;42.678;23.310;2022-07-18T02:48:34;53977.66;;;-144.00;38.71
12791;BME280;6459;42.678;23.310;2022-07-18T03:02:52;54009.53;;;-144.00;39.60
12791;BME280;6459;42.678;23.310;2022-07-18T03:05:21;53989.59;;;-144.00;39.56
12791;BME280;6459;42.678;23.310;2022-07-18T03:07:49;53977.66;;;-144.00;39.58
12791;BME280;6459;42.678;23.310;2022-07-18T03:10:17;54005.53;;;-144.00;39.90
12791;BME280;6459;42.678;23.310;2022-07-18T03:12:45;53997.56;;;-144.00;39.39
12791;BME280;6459;42.678;23.310;2022-07-18T03:15:14;54005.53;;;-144.00;39.43
12791;BME280;6459;42.678;23.310;2022-07-18T03:17:43;53965.69;;;-144.00;38.40
12791;BME280;6459;42.678;23.310;2022-07-18T03:20:13;54005.53;;;-144.00;37.98
12791;BME280;6459;42.678;23.310;2022-07-18T03:22:41;53969.69;;;-144.00;37.75
12791;BME280;6459;42.678;23.310;2022-07-18T03:25:09;53993.59;;;-144.00;37.85
12791;BME280;6459;42.678;23.310;2022-07-18T03:27:42;53977.66;;;-144.00;37.55
12791;BME280;6459;42.678;23.310;2022-07-18T03:30:12;54001.56;;;-144.00;36.97
12791;BME280;6459;42.678;23.310;2022-07-18T03:32:42;53957.72;;;-144.00;37.30
12791;BME280;6459;42.678;23.310;2022-07-18T03:40:34;54023.47;;;-144.00;37.72
12791;BME280;6459;42.678;23.310;2022-07-18T03:43:04;54029.44;;;-144.00;38.11
12791;BME280;6459;42.678;23.310;2022-07-18T03:45:33;54009.53;;;-144.00;38.43
12791;BME280;6459;42.678;23.310;2022-07-18T03:48:01;53979.63;;;-144.00;39.03
12791;BME280;6459;42.678;23.310;2022-07-18T03:50:29;54019.47;;;-144.00;39.28
12791;BME280;6459;42.678;23.310;2022-07-18T03:52:57;54005.53;;;-144.00;39.71
12791;BME280;6459;42.678;23.310;2022-07-18T03:55:26;54001.56;;;-144.00;39.36
12791;BME280;6459;42.678;23.310;2022-07-18T03:57:55;53991.59;;;-144.00;39.51
12791;BME280;6459;42.678;23.310;2022-07-18T04:00:23;54013.50;;;-144.00;38.77
12791;BME280;6459;42.678;23.310;2022-07-18T04:02:52;53971.66;;;-144.00;38.58
12791;BME280;6459;42.678;23.310;2022-07-18T04:05:20;53997.56;;;-144.00;38.62
12791;BME280;6459;42.678;23.310;2022-07-18T04:07:48;53973.66;;;-144.00;38.89
12791;BME280;6459;42.678;23.310;2022-07-18T04:10:16;53945.78;;;-144.00;38.63
12791;BME280;6459;42.678;23.310;2022-07-18T04:12:46;53979.63;;;-144.00;37.69
12791;BME280;6459;42.678;23.310;2022-07-18T04:15:16;53965.69;;;-144.00;36.80
12791;BME280;6459;42.678;23.310;2022-07-18T04:17:44;53967.69;;;-144.00;36.53
12791;BME280;6459;42.678;23.310;2022-07-18T04:20:14;53985.63;;;-144.00;36.70
12791;BME280;6459;42.678;23.310;2022-07-18T04:22:46;53941.78;;;-144.00;36.34
12791;BME280;6459;42.678;23.310;2022-07-18T04:25:15;53921.88;;;-144.00;36.27
12791;BME280;6459;42.678;23.310;2022-07-18T04:27:44;53955.72;;;-144.00;36.16
12791;BME280;6459;42.678;23.310;2022-07-18T04:30:12;53919.88;;;-144.00;36.43
12791;BME280;6459;42.678;23.310;2022-07-18T04:32:42;53933.81;;;-144.00;36.77
12791;BME280;6459;42.678;23.310;2022-07-18T04:35:18;53971.66;;;-144.00;36.65
12791;BME280;6459;42.678;23.310;2022-07-18T04:37:47;53949.75;;;-144.00;36.38
12791;BME280;6459;42.678;23.310;2022-07-18T04:40:15;53931.81;;;-144.00;36.11
12791;BME280;6459;42.678;23.310;2022-07-18T04:42:43;53943.78;;;-144.00;36.00
12791;BME280;6459;42.678;23.310;2022-07-18T04:45:13;53959.72;;;-144.00;36.10
12791;BME280;6459;42.678;23.310;2022-07-18T04:47:43;53957.72;;;-144.00;36.10
12791;BME280;6459;42.678;23.310;2022-07-18T04:50:12;53957.72;;;-144.00;35.78
12791;BME280;6459;42.678;23.310;2022-07-18T04:52:41;53969.69;;;-144.00;35.95
12791;BME280;6459;42.678;23.310;2022-07-18T04:55:11;54021.47;;;-144.00;36.19
12791;BME280;6459;42.678;23.310;2022-07-18T04:57:40;53901.94;;;-144.00;35.55
12791;BME280;6459;42.678;23.310;2022-07-18T05:00:11;53822.25;;;-144.00;33.95
12791;BME280;6459;42.678;23.310;2022-07-18T05:02:40;53734.59;;;-144.00;31.59
12791;BME280;6459;42.678;23.310;2022-07-18T05:05:11;53714.69;;;-144.00;30.02
12791;BME280;6459;42.678;23.310;2022-07-18T05:07:41;53613.09;;;-144.00;28.89
12791;BME280;6459;42.678;23.310;2022-07-18T05:10:11;53585.19;;;-144.00;27.96
12791;BME280;6459;42.678;23.310;2022-07-18T05:12:41;53555.31;;;-144.00;27.30
12791;BME280;6459;42.678;23.310;2022-07-18T05:15:11;53527.44;;;-144.00;26.51
12791;BME280;6459;42.678;23.310;2022-07-18T05:17:40;53515.47;;;-144.00;26.30
12791;BME280;6459;42.678;23.310;2022-07-18T05:20:12;53495.56;;;-144.00;26.19
12791;BME280;6459;42.678;23.310;2022-07-18T05:22:41;53517.47;;;-144.00;26.03
12791;BME280;6459;42.678;23.310;2022-07-18T05:25:11;53483.59;;;-144.00;26.40
12791;BME280;6459;42.678;23.310;2022-07-18T05:27:40;53439.78;;;-144.00;25.93
12791;BME280;6459;42.678;23.310;2022-07-18T05:30:11;53409.91;;;-144.00;24.94
12791;BME280;6459;42.678;23.310;2022-07-18T05:32:41;53384.00;;;-144.00;24.63
12791;BME280;6459;42.678;23.310;2022-07-18T05:35:12;53376.03;;;-144.00;24.31
12791;BME280;6459;42.678;23.310;2022-07-18T05:37:41;53382.00;;;-144.00;24.21
12791;BME280;6459;42.678;23.310;2022-07-18T05:40:11;53374.03;;;-144.00;24.18
12791;BME280;6459;42.678;23.310;2022-07-18T05:42:40;53372.06;;;-144.00;24.21
12791;BME280;6459;42.678;23.310;2022-07-18T05:45:24;53348.16;;;-144.00;23.85
12791;BME280;6459;42.678;23.310;2022-07-18T05:47:52;53296.38;;;-144.00;23.53
12791;BME280;6459;42.678;23.310;2022-07-18T05:50:23;53312.31;;;-144.00;23.58
12791;BME280;6459;42.678;23.310;2022-07-18T05:52:52;53332.22;;;-144.00;23.73
12791;BME280;6459;42.678;23.310;2022-07-18T05:55:20;53407.91;;;-144.00;24.08
12791;BME280;6459;42.678;23.310;2022-07-18T05:57:49;53467.66;;;-144.00;24.95
12791;BME280;6459;42.678;23.310;2022-07-18T06:00:18;53499.53;;;-144.00;25.40
12791;BME280;6459;42.678;23.310;2022-07-18T06:02:47;53601.13;;;-144.00;25.98
12791;BME280;6459;42.678;23.310;2022-07-18T06:05:16;53678.81;;;-144.00;27.46
12791;BME280;6459;42.678;23.310;2022-07-18T06:07:50;53686.78;;;-144.00;28.10
12791;BME280;6459;42.678;23.310;2022-07-18T06:10:21;53732.63;;;-144.00;28.61
12791;BME280;6459;42.678;23.310;2022-07-18T06:12:50;53706.72;;;-144.00;28.81
12791;BME280;6459;42.678;23.310;2022-07-18T06:15:18;53740.56;;;-144.00;28.46
12791;BME280;6459;42.678;23.310;2022-07-18T06:17:47;53658.91;;;-144.00;28.76
12791;BME280;6459;42.678;23.310;2022-07-18T06:20:16;53714.69;;;-144.00;29.03
12791;BME280;6459;42.678;23.310;2022-07-18T06:22:44;53762.50;;;-144.00;28.90
12791;BME280;6459;42.678;23.310;2022-07-18T06:25:14;53764.47;;;-144.00;29.70
12791;BME280;6459;42.678;23.310;2022-07-18T06:27:42;53754.53;;;-144.00;29.67
12791;BME280;6459;42.678;23.310;2022-07-18T06:30:11;53802.34;;;-144.00;29.82
12791;BME280;6459;42.678;23.310;2022-07-18T06:32:40;53692.78;;;-144.00;29.68
12791;BME280;6459;42.678;23.310;2022-07-18T06:35:08;53730.63;;;-144.00;29.74
12791;BME280;6459;42.678;23.310;2022-07-18T06:37:37;53768.47;;;-144.00;29.15
12791;BME280;6459;42.678;23.310;2022-07-18T06:40:06;53788.38;;;-144.00;29.12
12791;BME280;6459;42.678;23.310;2022-07-18T06:42:36;53794.38;;;-144.00;29.24
12791;BME280;6459;42.678;23.310;2022-07-18T06:45:05;53776.44;;;-144.00;29.25
12791;BME280;6459;42.678;23.310;2022-07-18T06:47:39;53744.56;;;-144.00;29.23
12791;BME280;6459;42.678;23.310;2022-07-18T06:50:08;53784.41;;;-144.00;29.14
12791;BME280;6459;42.678;23.310;2022-07-18T06:52:37;53796.34;;;-144.00;29.59
12791;BME280;6459;42.678;23.310;2022-07-18T06:55:07;53736.59;;;-144.00;29.46
12791;BME280;6459;42.678;23.310;2022-07-18T06:57:38;53768.47;;;-144.00;29.37
12791;BME280;6459;42.678;23.310;2022-07-18T07:00:07;53808.31;;;-144.00;29.56
12791;BME280;6459;42.678;23.310;2022-07-18T07:02:40;53804.31;;;-144.00;29.64
12791;BME280;6459;42.678;23.310;2022-07-18T07:05:08;53778.44;;;-144.00;29.79
12791;BME280;6459;42.678;23.310;2022-07-18T07:07:37;53804.31;;;-144.00;30.30
12791;BME280;6459;42.678;23.310;2022-07-18T07:10:13;53784.41;;;-144.00;30.22
12791;BME280;6459;42.678;23.310;2022-07-18T07:12:45;53818.28;;;-144.00;30.18
12791;BME280;6459;42.678;23.310;2022-07-18T07:15:14;53800.34;;;-144.00;29.96
12791;BME280;6459;42.678;23.310;2022-07-18T07:17:43;53810.31;;;-144.00;29.99
12791;BME280;6459;42.678;23.310;2022-07-18T07:20:12;53798.34;;;-144.00;29.99
12791;BME280;6459;42.678;23.310;2022-07-18T07:22:43;53824.25;;;-144.00;30.28
12791;BME280;6459;42.678;23.310;2022-07-18T07:25:12;53786.41;;;-144.00;29.70
12791;BME280;6459;42.678;23.310;2022-07-18T07:27:42;53778.44;;;-144.00;29.44
12791;BME280;6459;42.678;23.310;2022-07-18T07:30:13;53786.41;;;-144.00;29.54
12791;BME280;6459;42.678;23.310;2022-07-18T07:32:42;53786.41;;;-144.00;29.01
12791;BME280;6459;42.678;23.310;2022-07-18T07:35:12;53784.41;;;-144.00;29.34
12791;BME280;6459;42.678;23.310;2022-07-18T07:37:41;53762.50;;;-144.00;29.10
12791;BME280;6459;42.678;23.310;2022-07-18T07:40:10;53774.44;;;-144.00;29.40
12791;BME280;6459;42.678;23.310;2022-07-18T07:42:39;53776.44;;;-144.00;29.09
12791;BME280;6459;42.678;23.310;2022-07-18T07:45:09;53794.38;;;-144.00;29.29
12791;BME280;6459;42.678;23.310;2022-07-18T07:47:39;53802.34;;;-144.00;28.86
12791;BME280;6459;42.678;23.310;2022-07-18T07:50:08;53770.47;;;-144.00;29.05
12791;BME280;6459;42.678;23.310;2022-07-18T07:52:38;53782.41;;;-144.00;28.84
12791;BME280;6459;42.678;23.310;2022-07-18T07:55:07;53788.38;;;-144.00;28.69
12791;BME280;6459;42.678;23.310;2022-07-18T07:57:36;53778.44;;;-144.00;28.69
12791;BME280;6459;42.678;23.310;2022-07-18T08:00:06;53770.47;;;-144.00;28.36
12791;BME280;6459;42.678;23.310;2022-07-18T08:02:35;53758.50;;;-144.00;28.48
12791;BME280;6459;42.678;23.310;2022-07-18T08:05:06;53740.56;;;-144.00;28.36
12791;BME280;6459;42.678;23.310;2022-07-18T08:07:34;53760.50;;;-144.00;28.23
12791;BME280;6459;42.678;23.310;2022-07-18T08:10:03;53738.59;;;-144.00;28.01
12791;BME280;6459;42.678;23.310;2022-07-18T08:12:31;53774.44;;;-144.00;28.38
12791;BME280;6459;42.678;23.310;2022-07-18T08:15:00;53786.41;;;-144.00;28.16
12791;BME280;6459;42.678;23.310;2022-07-18T08:17:28;53746.56;;;-144.00;28.13
12791;BME280;6459;42.678;23.310;2022-07-18T08:19:56;53742.56;;;-144.00;27.88
12791;BME280;6459;42.678;23.310;2022-07-18T08:22:26;53750.53;;;-144.00;28.18
12791;BME280;6459;42.678;23.310;2022-07-18T08:24:54;53746.56;;;-144.00;28.14
12791;BME280;6459;42.678;23.310;2022-07-18T08:27:23;53778.44;;;-144.00;27.87
12791;BME280;6459;42.678;23.310;2022-07-18T08:29:51;53754.53;;;-144.00;27.59
12791;BME280;6459;42.678;23.310;2022-07-18T08:32:33;53748.53;;;-144.00;28.21
12791;BME280;6459;42.678;23.310;2022-07-18T08:35:01;53766.47;;;-144.00;28.11
12791;BME280;6459;42.678;23.310;2022-07-18T08:37:31;53746.56;;;-144.00;27.80
12791;BME280;6459;42.678;23.310;2022-07-18T08:39:59;53758.50;;;-144.00;27.78
12791;BME280;6459;42.678;23.310;2022-07-18T08:42:28;53708.72;;;-144.00;28.05
12791;BME280;6459;42.678;23.310;2022-07-18T08:44:56;53750.53;;;-144.00;28.26
12791;BME280;6459;42.678;23.310;2022-07-18T08:47:26;53720.66;;;-144.00;28.52
12791;BME280;6459;42.678;23.310;2022-07-18T08:49:56;53714.69;;;-144.00;28.38
12791;BME280;6459;42.678;23.310;2022-07-18T08:52:25;53698.75;;;-144.00;28.21
12791;BME280;6459;42.678;23.310;2022-07-18T08:55:15;53710.69;;;-144.00;28.46
12791;BME280;6459;42.678;23.310;2022-07-18T08:58:00;53720.66;;;-144.00;28.67
12791;BME280;6459;42.678;23.310;2022-07-18T09:00:48;53720.66;;;-144.00;28.86
12791;BME280;6459;42.678;23.310;2022-07-18T09:03:17;53734.59;;;-144.00;29.12
12791;BME280;6459;42.678;23.310;2022-07-18T09:05:45;53724.66;;;-144.00;28.78
12791;BME280;6459;42.678;23.310;2022-07-18T09:08:15;53718.66;;;-144.00;29.18
12791;BME280;6459;42.678;23.310;2022-07-18T09:10:48;53732.63;;;-144.00;29.15
12791;BME280;6459;42.678;23.310;2022-07-18T09:13:21;53730.63;;;-144.00;29.43
12791;BME280;6459;42.678;23.310;2022-07-18T09:16:00;53736.59;;;-144.00;29.17
12791;BME280;6459;42.678;23.310;2022-07-18T09:18:30;53706.72;;;-144.00;29.29
12791;BME280;6459;42.678;23.310;2022-07-18T09:21:05;53738.59;;;-144.00;29.54
12791;BME280;6459;42.678;23.310;2022-07-18T09:23:35;53738.59;;;-144.00;29.70
12791;BME280;6459;42.678;23.310;2022-07-18T09:26:04;53748.53;;;-144.00;29.73
12791;BME280;6459;42.678;23.310;2022-07-18T09:28:47;53724.66;;;-144.00;29.34
12791;BME280;6459;42.678;23.310;2022-07-18T09:31:36;53680.81;;;-144.00;29.50
12791;BME280;6459;42.678;23.310;2022-07-18T09:34:04;53696.75;;;-144.00;29.53
12791;BME280;6459;42.678;23.310;2022-07-18T09:36:33;53732.63;;;-144.00;29.18
12791;BME280;6459;42.678;23.310;2022-07-18T09:39:17;53686.78;;;-144.00;29.59
12791;BME280;6459;42.678;23.310;2022-07-18T09:41:46;53716.69;;;-144.00;29.87
12791;BME280;6459;42.678;23.310;2022-07-18T09:44:18;53682.81;;;-144.00;29.64
12791;BME280;6459;42.678;23.310;2022-07-18T09:46:59;53688.78;;;-144.00;29.33
12791;BME280;6459;42.678;23.310;2022-07-18T09:49:29;53688.78;;;-144.00;29.64
12791;BME280;6459;42.678;23.310;2022-07-18T09:52:03;53698.75;;;-144.00;29.63
12791;BME280;6459;42.678;23.310;2022-07-18T09:54:38;53694.75;;;-144.00;29.57
12791;BME280;6459;42.678;23.310;2022-07-18T09:57:07;53678.81;;;-144.00;29.77
12791;BME280;6459;42.678;23.310;2022-07-18T09:59:37;53706.72;;;-144.00;29.73
12791;BME280;6459;42.678;23.310;2022-07-18T10:02:14;53700.75;;;-144.00;29.50
12791;BME280;6459;42.678;23.310;2022-07-18T10:04:43;53686.78;;;-144.00;29.49
12791;BME280;6459;42.678;23.310;2022-07-18T10:07:13;53708.72;;;-144.00;29.51
12791;BME280;6459;42.678;23.310;2022-07-18T10:09:41;53718.66;;;-144.00;29.63
12791;BME280;6459;42.678;23.310;2022-07-18T10:12:13;53694.75;;;-144.00;29.53
12791;BME280;6459;42.678;23.310;2022-07-18T10:14:44;53678.81;;;-144.00;29.52
12791;BME280;6459;42.678;23.310;2022-07-18T10:17:13;53676.84;;;-144.00;29.63
12791;BME280;6459;42.678;23.310;2022-07-18T10:19:41;53682.81;;;-144.00;29.90
12791;BME280;6459;42.678;23.310;2022-07-18T10:22:09;53686.78;;;-144.00;30.23
12791;BME280;6459;42.678;23.310;2022-07-18T10:24:39;53680.81;;;-144.00;29.85
12791;BME280;6459;42.678;23.310;2022-07-18T10:27:11;53670.84;;;-144.00;29.88
12791;BME280;6459;42.678;23.310;2022-07-18T10:30:09;53720.66;;;-144.00;30.04
12791;BME280;6459;42.678;23.310;2022-07-18T10:32:39;53694.75;;;-144.00;29.97
12791;BME280;6459;42.678;23.310;2022-07-18T10:35:08;53694.75;;;-144.00;29.74
12791;BME280;6459;42.678;23.310;2022-07-18T10:37:38;53662.88;;;-144.00;29.63
12791;BME280;6459;42.678;23.310;2022-07-18T10:40:25;53654.91;;;-144.00;29.58
12791;BME280;6459;42.678;23.310;2022-07-18T10:43:35;53662.88;;;-144.00;29.79
12791;BME280;6459;42.678;23.310;2022-07-18T10:46:06;53658.91;;;-144.00;29.72
12791;BME280;6459;42.678;23.310;2022-07-18T10:48:52;53690.78;;;-144.00;29.54
12791;BME280;6459;42.678;23.310;2022-07-18T10:51:29;53706.72;;;-144.00;29.94
12791;BME280;6459;42.678;23.310;2022-07-18T10:54:12;53662.88;;;-144.00;30.05
12791;BME280;6459;42.678;23.310;2022-07-18T10:57:05;53646.94;;;-144.00;29.98
12791;BME280;6459;42.678;23.310;2022-07-18T10:59:39;53617.06;;;-144.00;30.35
12791;BME280;6459;42.678;23.310;2022-07-18T11:02:33;53658.91;;;-144.00;30.19
12791;BME280;6459;42.678;23.310;2022-07-18T11:05:03;53652.94;;;-144.00;29.75
12791;BME280;6459;42.678;23.310;2022-07-18T11:08:15;53654.91;;;-144.00;30.09
12791;BME280;6459;42.678;23.310;2022-07-18T11:11:14;53668.88;;;-144.00;30.38
12791;BME280;6459;42.678;23.310;2022-07-18T11:13:44;53650.94;;;-144.00;30.27
12791;BME280;6459;42.678;23.310;2022-07-18T11:16:19;53642.97;;;-144.00;30.15
12791;BME280;6459;42.678;23.310;2022-07-18T11:19:18;53654.91;;;-144.00;30.07
12791;BME280;6459;42.678;23.310;2022-07-18T11:21:56;53642.97;;;-144.00;30.29
12791;BME280;6459;42.678;23.310;2022-07-18T11:24:24;53656.91;;;-144.00;30.40
12791;BME280;6459;42.678;23.310;2022-07-18T11:26:53;53625.03;;;-144.00;29.87
12791;BME280;6459;42.678;23.310;2022-07-18T11:29:21;53627.03;;;-144.00;30.05
12791;BME280;6459;42.678;23.310;2022-07-18T11:31:51;53627.03;;;-144.00;29.75
12791;BME280;6459;42.678;23.310;2022-07-18T11:34:22;53617.06;;;-144.00;30.05
12791;BME280;6459;42.678;23.310;2022-07-18T11:37:06;53599.16;;;-144.00;29.44
12791;BME280;6459;42.678;23.310;2022-07-18T11:39:35;53617.06;;;-144.00;29.64
12791;BME280;6459;42.678;23.310;2022-07-18T11:42:03;53627.03;;;-144.00;29.95
12791;BME280;6459;42.678;23.310;2022-07-18T11:44:32;53625.03;;;-144.00;29.82
12791;BME280;6459;42.678;23.310;2022-07-18T11:47:02;53607.09;;;-144.00;29.55
12791;BME280;6459;42.678;23.310;2022-07-18T11:49:31;53579.22;;;-144.00;29.77
12791;BME280;6459;42.678;23.310;2022-07-18T11:51:59;53611.09;;;-144.00;29.64
12791;BME280;6459;42.678;23.310;2022-07-18T11:54:28;53658.91;;;-144.00;29.42
12791;BME280;6459;42.678;23.310;2022-07-18T11:56:56;53615.06;;;-144.00;29.32
12791;BME280;6459;42.678;23.310;2022-07-18T11:59:35;53617.06;;;-144.00;29.54
12791;BME280;6459;42.678;23.310;2022-07-18T12:02:04;53613.09;;;-144.00;29.34
12791;BME280;6459;42.678;23.310;2022-07-18T12:04:34;53603.13;;;-144.00;29.14
12791;BME280;6459;42.678;23.310;2022-07-18T12:07:18;53589.19;;;-144.00;29.20
12791;BME280;6459;42.678;23.310;2022-07-18T12:09:47;53585.19;;;-144.00;28.55
12791;BME280;6459;42.678;23.310;2022-07-18T12:12:17;53638.97;;;-144.00;28.66
12791;BME280;6459;42.678;23.310;2022-07-18T12:14:58;53629.03;;;-144.00;28.61
12791;BME280;6459;42.678;23.310;2022-07-18T12:17:28;53617.06;;;-144.00;28.82
12791;BME280;6459;42.678;23.310;2022-07-18T12:20:11;53579.22;;;-144.00;28.42
12791;BME280;6459;42.678;23.310;2022-07-18T12:23:03;53577.22;;;-144.00;28.13
12791;BME280;6459;42.678;23.310;2022-07-18T12:25:56;53587.19;;;-144.00;28.45
12791;BME280;6459;42.678;23.310;2022-07-18T12:28:25;53585.19;;;-144.00;29.39
12791;BME280;6459;42.678;23.310;2022-07-18T12:30:54;53589.19;;;-144.00;29.34
12791;BME280;6459;42.678;23.310;2022-07-18T12:33:26;53587.19;;;-144.00;29.92
12791;BME280;6459;42.678;23.310;2022-07-18T12:35:58;53573.25;;;-144.00;30.11
12791;BME280;6459;42.678;23.310;2022-07-18T12:38:27;53571.25;;;-144.00;30.12
12791;BME280;6459;42.678;23.310;2022-07-18T12:40:57;53595.16;;;-144.00;29.95
12791;BME280;6459;42.678;23.310;2022-07-18T12:43:29;53635.00;;;-144.00;29.69
12791;BME280;6459;42.678;23.310;2022-07-18T12:45:58;53555.31;;;-144.00;29.54
12791;BME280;6459;42.678;23.310;2022-07-18T12:48:28;53579.22;;;-144.00;29.64
12791;BME280;6459;42.678;23.310;2022-07-18T12:50:59;53583.22;;;-144.00;29.50
12791;BME280;6459;42.678;23.310;2022-07-18T12:53:30;53597.16;;;-144.00;30.21
12791;BME280;6459;42.678;23.310;2022-07-18T12:55:59;53585.19;;;-144.00;29.98
12791;BME280;6459;42.678;23.310;2022-07-18T12:58:28;53591.19;;;-144.00;30.24
12791;BME280;6459;42.678;23.310;2022-07-18T13:00:56;53573.25;;;-144.00;30.06
12791;BME280;6459;42.678;23.310;2022-07-18T13:03:32;53599.16;;;-144.00;30.35
12791;BME280;6459;42.678;23.310;2022-07-18T13:06:02;53609.09;;;-144.00;30.21
12791;BME280;6459;42.678;23.310;2022-07-18T13:08:31;53587.19;;;-144.00;30.07
12791;BME280;6459;42.678;23.310;2022-07-18T13:11:00;53587.19;;;-144.00;30.49
12791;BME280;6459;42.678;23.310;2022-07-18T13:13:28;53607.09;;;-144.00;29.94
12791;BME280;6459;42.678;23.310;2022-07-18T13:15:57;53567.28;;;-144.00;29.66
12791;BME280;6459;42.678;23.310;2022-07-18T13:18:25;53575.25;;;-144.00;30.04
12791;BME280;6459;42.678;23.310;2022-07-18T13:20:54;53591.19;;;-144.00;30.17
12791;BME280;6459;42.678;23.310;2022-07-18T13:23:24;53583.22;;;-144.00;29.97
12791;BME280;6459;42.678;23.310;2022-07-18T13:25:52;53577.22;;;-144.00;29.91
12791;BME280;6459;42.678;23.310;2022-07-18T13:28:20;53607.09;;;-144.00;29.99
12791;BME280;6459;42.678;23.310;2022-07-18T13:30:49;53613.09;;;-144.00;29.96
12791;BME280;6459;42.678;23.310;2022-07-18T13:33:17;53595.16;;;-144.00;29.87